Daxing, China
Current Conditions -  °F | °C
As of 11:30 AM on Sunday 21 Dec 2014 (Local Time) from ZBAA Reporting Station
Clear Clear  
Wind Chill: 18°   Ceiling: Unl
Heat Index: 30°   Visibility: 6mi
Dew Point:   Wind: 18mph
Humidity: 27%   Direction: 300°WNW
Pressure: 30.36"   Gusts: NA
Location:  39.72°N, 116.35°E
Report Text: ZBAA 210330Z 30008MPS CAVOK M01/M18 Q1028 NOSIG
Loading
Personal Weather Stations






























Interactive Weather Map New forecast layout! Learn more

10-Day Weather Forecast

Advertisements
Track Severe Weather on mobile